sensor_id;sensor_type;location;lat;lon;timestamp;P1;durP1;ratioP1;P2;durP2;ratioP2
78169;SDS011;67412;49.892;14.490;2024-02-23T00:02:05;1.75;;;0.73;;
78169;SDS011;67412;49.892;14.490;2024-02-23T00:04:30;1.83;;;0.70;;
78169;SDS011;67412;49.892;14.490;2024-02-23T00:06:55;1.40;;;0.80;;
78169;SDS011;67412;49.892;14.490;2024-02-23T00:09:21;1.50;;;0.63;;
78169;SDS011;67412;49.892;14.490;2024-02-23T00:11:46;2.47;;;0.80;;
78169;SDS011;67412;49.892;14.490;2024-02-23T00:14:14;1.67;;;0.65;;
78169;SDS011;67412;49.892;14.490;2024-02-23T00:16:41;0.82;;;0.60;;
78169;SDS011;67412;49.892;14.490;2024-02-23T00:19:10;1.48;;;0.80;;
78169;SDS011;67412;49.892;14.490;2024-02-23T00:21:38;1.80;;;0.50;;
78169;SDS011;67412;49.892;14.490;2024-02-23T00:24:04;1.95;;;0.80;;
78169;SDS011;67412;49.892;14.490;2024-02-23T00:26:30;1.10;;;0.60;;
78169;SDS011;67412;49.892;14.490;2024-02-23T00:28:56;2.28;;;0.70;;
78169;SDS011;67412;49.892;14.490;2024-02-23T00:31:21;1.20;;;0.60;;
78169;SDS011;67412;49.892;14.490;2024-02-23T00:33:46;1.50;;;0.70;;
78169;SDS011;67412;49.892;14.490;2024-02-23T00:36:12;1.67;;;0.70;;
78169;SDS011;67412;49.892;14.490;2024-02-23T00:38:38;1.85;;;0.70;;
78169;SDS011;67412;49.892;14.490;2024-02-23T00:41:03;1.08;;;0.65;;
78169;SDS011;67412;49.892;14.490;2024-02-23T00:43:28;1.25;;;0.70;;
78169;SDS011;67412;49.892;14.490;2024-02-23T00:45:56;2.10;;;0.60;;
78169;SDS011;67412;49.892;14.490;2024-02-23T00:48:22;1.35;;;0.70;;
78169;SDS011;67412;49.892;14.490;2024-02-23T00:50:47;1.85;;;0.70;;
78169;SDS011;67412;49.892;14.490;2024-02-23T00:53:12;1.95;;;0.70;;
78169;SDS011;67412;49.892;14.490;2024-02-23T00:55:38;1.48;;;0.63;;
78169;SDS011;67412;49.892;14.490;2024-02-23T00:58:03;0.82;;;0.60;;
78169;SDS011;67412;49.892;14.490;2024-02-23T01:00:29;1.67;;;0.50;;
78169;SDS011;67412;49.892;14.490;2024-02-23T01:02:54;1.38;;;0.80;;
78169;SDS011;67412;49.892;14.490;2024-02-23T01:05:20;1.88;;;0.73;;
78169;SDS011;67412;49.892;14.490;2024-02-23T01:07:45;1.77;;;0.70;;
78169;SDS011;67412;49.892;14.490;2024-02-23T01:10:10;0.65;;;0.43;;
78169;SDS011;67412;49.892;14.490;2024-02-23T01:12:36;1.05;;;0.65;;
78169;SDS011;67412;49.892;14.490;2024-02-23T01:15:02;1.67;;;0.60;;
78169;SDS011;67412;49.892;14.490;2024-02-23T01:19:53;1.57;;;0.73;;
78169;SDS011;67412;49.892;14.490;2024-02-23T01:22:19;2.47;;;0.60;;
78169;SDS011;67412;49.892;14.490;2024-02-23T01:24:44;1.42;;;0.52;;
78169;SDS011;67412;49.892;14.490;2024-02-23T01:27:09;1.80;;;0.60;;
78169;SDS011;67412;49.892;14.490;2024-02-23T01:29:35;1.50;;;0.75;;
78169;SDS011;67412;49.892;14.490;2024-02-23T01:32:00;3.40;;;0.65;;
78169;SDS011;67412;49.892;14.490;2024-02-23T01:34:26;1.42;;;0.40;;
78169;SDS011;67412;49.892;14.490;2024-02-23T01:36:51;0.80;;;0.47;;
78169;SDS011;67412;49.892;14.490;2024-02-23T01:39:17;1.05;;;0.60;;
78169;SDS011;67412;49.892;14.490;2024-02-23T01:41:42;0.80;;;0.35;;
78169;SDS011;67412;49.892;14.490;2024-02-23T01:44:09;1.55;;;0.40;;
78169;SDS011;67412;49.892;14.490;2024-02-23T01:46:37;1.80;;;0.70;;
78169;SDS011;67412;49.892;14.490;2024-02-23T01:49:02;0.85;;;0.40;;
78169;SDS011;67412;49.892;14.490;2024-02-23T01:51:29;1.88;;;0.70;;
78169;SDS011;67412;49.892;14.490;2024-02-23T01:53:55;1.90;;;0.57;;
78169;SDS011;67412;49.892;14.490;2024-02-23T01:56:20;1.10;;;0.50;;
78169;SDS011;67412;49.892;14.490;2024-02-23T01:58:46;1.88;;;0.60;;
78169;SDS011;67412;49.892;14.490;2024-02-23T02:01:12;0.77;;;0.45;;
78169;SDS011;67412;49.892;14.490;2024-02-23T02:03:37;1.00;;;0.40;;
78169;SDS011;67412;49.892;14.490;2024-02-23T02:06:04;1.35;;;0.60;;
78169;SDS011;67412;49.892;14.490;2024-02-23T02:08:30;1.92;;;0.60;;
78169;SDS011;67412;49.892;14.490;2024-02-23T02:10:55;1.27;;;0.55;;
78169;SDS011;67412;49.892;14.490;2024-02-23T02:13:21;1.65;;;0.60;;
78169;SDS011;67412;49.892;14.490;2024-02-23T02:15:46;1.13;;;0.45;;
78169;SDS011;67412;49.892;14.490;2024-02-23T02:18:11;0.60;;;0.40;;
78169;SDS011;67412;49.892;14.490;2024-02-23T02:20:37;0.65;;;0.40;;
78169;SDS011;67412;49.892;14.490;2024-02-23T02:23:15;1.92;;;0.70;;
78169;SDS011;67412;49.892;14.490;2024-02-23T02:25:40;1.98;;;0.63;;
78169;SDS011;67412;49.892;14.490;2024-02-23T02:28:06;1.38;;;0.40;;
78169;SDS011;67412;49.892;14.490;2024-02-23T02:30:32;1.02;;;0.43;;
78169;SDS011;67412;49.892;14.490;2024-02-23T02:32:57;0.90;;;0.45;;
78169;SDS011;67412;49.892;14.490;2024-02-23T02:35:23;1.98;;;0.57;;
78169;SDS011;67412;49.892;14.490;2024-02-23T02:37:48;2.40;;;0.57;;
78169;SDS011;67412;49.892;14.490;2024-02-23T02:40:14;1.35;;;0.52;;
78169;SDS011;67412;49.892;14.490;2024-02-23T02:42:39;1.63;;;0.55;;
78169;SDS011;67412;49.892;14.490;2024-02-23T02:45:05;0.70;;;0.40;;
78169;SDS011;67412;49.892;14.490;2024-02-23T02:47:31;0.52;;;0.30;;
78169;SDS011;67412;49.892;14.490;2024-02-23T02:49:56;0.38;;;0.22;;
78169;SDS011;67412;49.892;14.490;2024-02-23T02:52:21;1.52;;;0.25;;
78169;SDS011;67412;49.892;14.490;2024-02-23T02:54:48;1.13;;;0.50;;
78169;SDS011;67412;49.892;14.490;2024-02-23T02:57:14;2.22;;;0.50;;
78169;SDS011;67412;49.892;14.490;2024-02-23T02:59:39;0.52;;;0.30;;
78169;SDS011;67412;49.892;14.490;2024-02-23T03:02:05;1.17;;;0.40;;
78169;SDS011;67412;49.892;14.490;2024-02-23T03:04:30;0.50;;;0.38;;
78169;SDS011;67412;49.892;14.490;2024-02-23T03:06:55;1.30;;;0.40;;
78169;SDS011;67412;49.892;14.490;2024-02-23T03:09:21;0.38;;;0.30;;
78169;SDS011;67412;49.892;14.490;2024-02-23T03:11:46;0.57;;;0.22;;
78169;SDS011;67412;49.892;14.490;2024-02-23T03:14:11;0.85;;;0.20;;
78169;SDS011;67412;49.892;14.490;2024-02-23T03:16:37;0.30;;;0.20;;
78169;SDS011;67412;49.892;14.490;2024-02-23T03:19:03;1.08;;;0.30;;
78169;SDS011;67412;49.892;14.490;2024-02-23T03:21:28;1.65;;;0.52;;
78169;SDS011;67412;49.892;14.490;2024-02-23T03:23:54;0.52;;;0.28;;
78169;SDS011;67412;49.892;14.490;2024-02-23T03:26:19;1.10;;;0.10;;
78169;SDS011;67412;49.892;14.490;2024-02-23T03:28:45;1.95;;;0.40;;
78169;SDS011;67412;49.892;14.490;2024-02-23T03:31:10;2.03;;;0.30;;
78169;SDS011;67412;49.892;14.490;2024-02-23T03:33:35;0.73;;;0.20;;
78169;SDS011;67412;49.892;14.490;2024-02-23T03:36:02;0.13;;;0.10;;
78169;SDS011;67412;49.892;14.490;2024-02-23T03:38:28;0.10;;;0.10;;
78169;SDS011;67412;49.892;14.490;2024-02-23T03:40:54;0.88;;;0.20;;
78169;SDS011;67412;49.892;14.490;2024-02-23T03:43:20;0.52;;;0.20;;
78169;SDS011;67412;49.892;14.490;2024-02-23T03:45:46;0.30;;;0.20;;
78169;SDS011;67412;49.892;14.490;2024-02-23T03:48:11;1.90;;;0.50;;
78169;SDS011;67412;49.892;14.490;2024-02-23T03:50:36;0.55;;;0.17;;
78169;SDS011;67412;49.892;14.490;2024-02-23T03:53:02;0.40;;;0.10;;
78169;SDS011;67412;49.892;14.490;2024-02-23T03:55:28;1.10;;;0.20;;
78169;SDS011;67412;49.892;14.490;2024-02-23T03:57:54;0.10;;;0.10;;
78169;SDS011;67412;49.892;14.490;2024-02-23T04:00:19;1.45;;;0.10;;
78169;SDS011;67412;49.892;14.490;2024-02-23T04:02:45;0.22;;;0.10;;
78169;SDS011;67412;49.892;14.490;2024-02-23T04:05:11;1.40;;;0.10;;
78169;SDS011;67412;49.892;14.490;2024-02-23T04:07:36;0.20;;;0.10;;
78169;SDS011;67412;49.892;14.490;2024-02-23T04:10:02;0.10;;;0.10;;
78169;SDS011;67412;49.892;14.490;2024-02-23T04:12:29;0.50;;;0.10;;
78169;SDS011;67412;49.892;14.490;2024-02-23T04:14:56;0.10;;;0.10;;
78169;SDS011;67412;49.892;14.490;2024-02-23T04:17:21;0.38;;;0.05;;
78169;SDS011;67412;49.892;14.490;2024-02-23T04:19:47;1.25;;;0.30;;
78169;SDS011;67412;49.892;14.490;2024-02-23T04:22:12;0.25;;;0.08;;
78169;SDS011;67412;49.892;14.490;2024-02-23T04:24:38;0.47;;;0.10;;
78169;SDS011;67412;49.892;14.490;2024-02-23T04:27:04;0.45;;;0.05;;
78169;SDS011;67412;49.892;14.490;2024-02-23T04:29:30;0.00;;;0.00;;
78169;SDS011;67412;49.892;14.490;2024-02-23T04:31:57;0.20;;;0.03;;
78169;SDS011;67412;49.892;14.490;2024-02-23T04:34:22;0.10;;;0.10;;
78169;SDS011;67412;49.892;14.490;2024-02-23T04:36:48;0.08;;;0.00;;
78169;SDS011;67412;49.892;14.490;2024-02-23T04:39:14;0.47;;;0.10;;
78169;SDS011;67412;49.892;14.490;2024-02-23T04:41:39;1.08;;;0.20;;
78169;SDS011;67412;49.892;14.490;2024-02-23T04:44:04;0.00;;;0.00;;
78169;SDS011;67412;49.892;14.490;2024-02-23T04:46:30;0.32;;;0.13;;
78169;SDS011;67412;49.892;14.490;2024-02-23T04:48:56;0.22;;;0.20;;
78169;SDS011;67412;49.892;14.490;2024-02-23T04:51:21;0.20;;;0.10;;
78169;SDS011;67412;49.892;14.490;2024-02-23T04:53:48;1.38;;;0.17;;
78169;SDS011;67412;49.892;14.490;2024-02-23T04:56:14;0.80;;;0.30;;
78169;SDS011;67412;49.892;14.490;2024-02-23T04:58:39;0.90;;;0.40;;
78169;SDS011;67412;49.892;14.490;2024-02-23T05:03:31;0.10;;;0.10;;
78169;SDS011;67412;49.892;14.490;2024-02-23T05:05:56;0.55;;;0.10;;
78169;SDS011;67412;49.892;14.490;2024-02-23T05:08:23;0.00;;;0.00;;
78169;SDS011;67412;49.892;14.490;2024-02-23T05:10:49;2.10;;;0.38;;
78169;SDS011;67412;49.892;14.490;2024-02-23T05:13:15;0.38;;;0.30;;
78169;SDS011;67412;49.892;14.490;2024-02-23T05:15:41;2.65;;;0.20;;
78169;SDS011;67412;49.892;14.490;2024-02-23T05:18:06;0.13;;;0.10;;
78169;SDS011;67412;49.892;14.490;2024-02-23T05:20:32;0.10;;;0.10;;
78169;SDS011;67412;49.892;14.490;2024-02-23T05:22:57;0.63;;;0.28;;
78169;SDS011;67412;49.892;14.490;2024-02-23T05:25:22;0.70;;;0.28;;
78169;SDS011;67412;49.892;14.490;2024-02-23T05:27:48;0.10;;;0.10;;
78169;SDS011;67412;49.892;14.490;2024-02-23T05:30:13;0.30;;;0.10;;
78169;SDS011;67412;49.892;14.490;2024-02-23T05:32:39;0.17;;;0.10;;
78169;SDS011;67412;49.892;14.490;2024-02-23T05:35:04;0.47;;;0.10;;
78169;SDS011;67412;49.892;14.490;2024-02-23T05:37:30;0.85;;;0.10;;
78169;SDS011;67412;49.892;14.490;2024-02-23T05:39:56;2.42;;;0.20;;
78169;SDS011;67412;49.892;14.490;2024-02-23T05:42:21;1.25;;;0.20;;
78169;SDS011;67412;49.892;14.490;2024-02-23T05:44:46;2.13;;;0.20;;
78169;SDS011;67412;49.892;14.490;2024-02-23T05:47:13;1.65;;;0.20;;
78169;SDS011;67412;49.892;14.490;2024-02-23T05:49:39;0.20;;;0.20;;
78169;SDS011;67412;49.892;14.490;2024-02-23T05:52:05;1.10;;;0.10;;
78169;SDS011;67412;49.892;14.490;2024-02-23T05:54:30;1.10;;;0.30;;
78169;SDS011;67412;49.892;14.490;2024-02-23T05:56:55;0.10;;;0.10;;
78169;SDS011;67412;49.892;14.490;2024-02-23T05:59:22;0.40;;;0.20;;
78169;SDS011;67412;49.892;14.490;2024-02-23T06:01:48;0.35;;;0.20;;
78169;SDS011;67412;49.892;14.490;2024-02-23T06:04:13;0.88;;;0.20;;
78169;SDS011;67412;49.892;14.490;2024-02-23T06:06:41;0.63;;;0.35;;
78169;SDS011;67412;49.892;14.490;2024-02-23T06:09:08;0.35;;;0.28;;
78169;SDS011;67412;49.892;14.490;2024-02-23T06:11:33;1.40;;;0.50;;
78169;SDS011;67412;49.892;14.490;2024-02-23T06:13:59;0.88;;;0.30;;
78169;SDS011;67412;49.892;14.490;2024-02-23T06:16:24;0.38;;;0.10;;
78169;SDS011;67412;49.892;14.490;2024-02-23T06:18:49;0.77;;;0.17;;
78169;SDS011;67412;49.892;14.490;2024-02-23T06:21:17;1.17;;;0.32;;
78169;SDS011;67412;49.892;14.490;2024-02-23T06:23:43;1.10;;;0.30;;
78169;SDS011;67412;49.892;14.490;2024-02-23T06:26:09;1.63;;;0.20;;
78169;SDS011;67412;49.892;14.490;2024-02-23T06:28:35;0.85;;;0.30;;
78169;SDS011;67412;49.892;14.490;2024-02-23T06:33:28;0.85;;;0.30;;
78169;SDS011;67412;49.892;14.490;2024-02-23T06:35:54;0.57;;;0.32;;
78169;SDS011;67412;49.892;14.490;2024-02-23T06:38:20;1.05;;;0.30;;
78169;SDS011;67412;49.892;14.490;2024-02-23T06:40:45;1.38;;;0.47;;
78169;SDS011;67412;49.892;14.490;2024-02-23T06:43:12;1.20;;;0.32;;
78169;SDS011;67412;49.892;14.490;2024-02-23T06:45:37;1.23;;;0.40;;
78169;SDS011;67412;49.892;14.490;2024-02-23T06:48:03;1.48;;;0.47;;
78169;SDS011;67412;49.892;14.490;2024-02-23T06:50:29;1.15;;;0.20;;
78169;SDS011;67412;49.892;14.490;2024-02-23T06:52:54;1.40;;;0.30;;
78169;SDS011;67412;49.892;14.490;2024-02-23T06:55:19;0.57;;;0.15;;
78169;SDS011;67412;49.892;14.490;2024-02-23T06:57:45;0.25;;;0.10;;
78169;SDS011;67412;49.892;14.490;2024-02-23T07:00:12;0.55;;;0.20;;
78169;SDS011;67412;49.892;14.490;2024-02-23T07:02:37;0.75;;;0.38;;
78169;SDS011;67412;49.892;14.490;2024-02-23T07:05:03;1.73;;;0.38;;
78169;SDS011;67412;49.892;14.490;2024-02-23T07:07:32;1.15;;;0.30;;
78169;SDS011;67412;49.892;14.490;2024-02-23T07:09:58;0.68;;;0.30;;
78169;SDS011;67412;49.892;14.490;2024-02-23T07:12:24;0.30;;;0.30;;
78169;SDS011;67412;49.892;14.490;2024-02-23T07:14:52;0.13;;;0.13;;
78169;SDS011;67412;49.892;14.490;2024-02-23T07:17:17;1.38;;;0.20;;
78169;SDS011;67412;49.892;14.490;2024-02-23T07:19:43;0.63;;;0.28;;
78169;SDS011;67412;49.892;14.490;2024-02-23T07:22:09;1.42;;;0.28;;
78169;SDS011;67412;49.892;14.490;2024-02-23T07:24:34;2.15;;;0.43;;
78169;SDS011;67412;49.892;14.490;2024-02-23T07:27:04;0.38;;;0.32;;
78169;SDS011;67412;49.892;14.490;2024-02-23T07:29:30;1.08;;;0.22;;
78169;SDS011;67412;49.892;14.490;2024-02-23T07:31:55;2.17;;;0.40;;
78169;SDS011;67412;49.892;14.490;2024-02-23T07:34:20;1.58;;;0.13;;
78169;SDS011;67412;49.892;14.490;2024-02-23T07:36:46;1.25;;;0.20;;
78169;SDS011;67412;49.892;14.490;2024-02-23T07:39:11;0.47;;;0.30;;
78169;SDS011;67412;49.892;14.490;2024-02-23T07:41:36;0.20;;;0.20;;
78169;SDS011;67412;49.892;14.490;2024-02-23T07:44:02;1.08;;;0.22;;
78169;SDS011;67412;49.892;14.490;2024-02-23T07:46:27;3.17;;;0.40;;
78169;SDS011;67412;49.892;14.490;2024-02-23T07:48:52;1.00;;;0.20;;
78169;SDS011;67412;49.892;14.490;2024-02-23T07:51:18;2.25;;;0.38;;
78169;SDS011;67412;49.892;14.490;2024-02-23T07:53:44;1.70;;;0.35;;
78169;SDS011;67412;49.892;14.490;2024-02-23T07:56:09;0.60;;;0.28;;
78169;SDS011;67412;49.892;14.490;2024-02-23T07:58:35;0.45;;;0.22;;
78169;SDS011;67412;49.892;14.490;2024-02-23T08:01:00;2.58;;;0.70;;
78169;SDS011;67412;49.892;14.490;2024-02-23T08:03:25;1.83;;;0.22;;
78169;SDS011;67412;49.892;14.490;2024-02-23T08:05:51;0.85;;;0.32;;
78169;SDS011;67412;49.892;14.490;2024-02-23T08:08:16;1.15;;;0.50;;
78169;SDS011;67412;49.892;14.490;2024-02-23T08:10:42;1.45;;;0.30;;
78169;SDS011;67412;49.892;14.490;2024-02-23T08:13:08;4.25;;;0.57;;
78169;SDS011;67412;49.892;14.490;2024-02-23T08:15:36;0.68;;;0.32;;
78169;SDS011;67412;49.892;14.490;2024-02-23T08:18:01;2.80;;;0.45;;
78169;SDS011;67412;49.892;14.490;2024-02-23T08:20:27;2.08;;;0.55;;
78169;SDS011;67412;49.892;14.490;2024-02-23T08:22:52;0.52;;;0.30;;
78169;SDS011;67412;49.892;14.490;2024-02-23T08:25:17;3.33;;;0.50;;
78169;SDS011;67412;49.892;14.490;2024-02-23T08:27:43;2.45;;;0.40;;
78169;SDS011;67412;49.892;14.490;2024-02-23T08:30:08;2.30;;;0.17;;
78169;SDS011;67412;49.892;14.490;2024-02-23T08:32:35;2.08;;;0.32;;
78169;SDS011;67412;49.892;14.490;2024-02-23T08:35:01;1.02;;;0.32;;
78169;SDS011;67412;49.892;14.490;2024-02-23T08:37:27;1.83;;;0.30;;
78169;SDS011;67412;49.892;14.490;2024-02-23T08:39:53;2.10;;;0.30;;
78169;SDS011;67412;49.892;14.490;2024-02-23T08:42:19;2.85;;;0.50;;
78169;SDS011;67412;49.892;14.490;2024-02-23T08:44:44;0.88;;;0.28;;
78169;SDS011;67412;49.892;14.490;2024-02-23T08:47:09;4.63;;;0.60;;
78169;SDS011;67412;49.892;14.490;2024-02-23T08:49:35;1.52;;;0.45;;
78169;SDS011;67412;49.892;14.490;2024-02-23T08:52:00;3.83;;;0.52;;
78169;SDS011;67412;49.892;14.490;2024-02-23T08:54:27;1.13;;;0.32;;
78169;SDS011;67412;49.892;14.490;2024-02-23T08:56:52;2.35;;;0.50;;
78169;SDS011;67412;49.892;14.490;2024-02-23T08:59:18;1.33;;;0.30;;
78169;SDS011;67412;49.892;14.490;2024-02-23T09:01:43;0.80;;;0.30;;
78169;SDS011;67412;49.892;14.490;2024-02-23T09:04:09;3.40;;;0.57;;
78169;SDS011;67412;49.892;14.490;2024-02-23T09:06:34;1.67;;;0.40;;
78169;SDS011;67412;49.892;14.490;2024-02-23T09:09:00;1.15;;;0.40;;
78169;SDS011;67412;49.892;14.490;2024-02-23T09:11:25;3.30;;;0.47;;
78169;SDS011;67412;49.892;14.490;2024-02-23T09:13:51;2.20;;;0.52;;
78169;SDS011;67412;49.892;14.490;2024-02-23T09:16:16;2.33;;;0.52;;
78169;SDS011;67412;49.892;14.490;2024-02-23T09:18:42;0.98;;;0.50;;
78169;SDS011;67412;49.892;14.490;2024-02-23T09:21:07;1.63;;;0.30;;
78169;SDS011;67412;49.892;14.490;2024-02-23T09:23:33;2.40;;;0.63;;
78169;SDS011;67412;49.892;14.490;2024-02-23T09:25:59;2.03;;;0.50;;
78169;SDS011;67412;49.892;14.490;2024-02-23T09:28:24;1.98;;;0.35;;
78169;SDS011;67412;49.892;14.490;2024-02-23T09:30:49;1.08;;;0.40;;
78169;SDS011;67412;49.892;14.490;2024-02-23T09:33:15;3.08;;;0.70;;
78169;SDS011;67412;49.892;14.490;2024-02-23T09:35:40;0.52;;;0.30;;
78169;SDS011;67412;49.892;14.490;2024-02-23T09:38:06;2.95;;;0.47;;
78169;SDS011;67412;49.892;14.490;2024-02-23T09:40:31;3.45;;;0.57;;
78169;SDS011;67412;49.892;14.490;2024-02-23T09:42:57;1.15;;;0.50;;
78169;SDS011;67412;49.892;14.490;2024-02-23T09:45:26;1.05;;;0.40;;
78169;SDS011;67412;49.892;14.490;2024-02-23T09:47:56;2.20;;;0.52;;
78169;SDS011;67412;49.892;14.490;2024-02-23T09:50:23;3.08;;;0.60;;
78169;SDS011;67412;49.892;14.490;2024-02-23T09:52:49;1.95;;;0.63;;
78169;SDS011;67412;49.892;14.490;2024-02-23T09:55:18;0.10;;;0.10;;
78169;SDS011;67412;49.892;14.490;2024-02-23T09:57:46;1.77;;;0.47;;
78169;SDS011;67412;49.892;14.490;2024-02-23T10:00:15;4.00;;;0.57;;
78169;SDS011;67412;49.892;14.490;2024-02-23T10:02:42;3.50;;;0.82;;
78169;SDS011;67412;49.892;14.490;2024-02-23T10:05:08;3.45;;;0.40;;
78169;SDS011;67412;49.892;14.490;2024-02-23T10:07:35;0.90;;;0.30;;
78169;SDS011;67412;49.892;14.490;2024-02-23T10:10:01;2.13;;;0.50;;
78169;SDS011;67412;49.892;14.490;2024-02-23T10:12:26;1.77;;;0.82;;
78169;SDS011;67412;49.892;14.490;2024-02-23T10:14:51;4.25;;;0.60;;
78169;SDS011;67412;49.892;14.490;2024-02-23T10:17:18;2.40;;;0.57;;
78169;SDS011;67412;49.892;14.490;2024-02-23T10:19:45;0.65;;;0.25;;
78169;SDS011;67412;49.892;14.490;2024-02-23T10:22:10;0.95;;;0.43;;
78169;SDS011;67412;49.892;14.490;2024-02-23T10:24:36;3.40;;;0.57;;
78169;SDS011;67412;49.892;14.490;2024-02-23T10:27:02;1.38;;;0.40;;
78169;SDS011;67412;49.892;14.490;2024-02-23T10:29:27;1.20;;;0.43;;
78169;SDS011;67412;49.892;14.490;2024-02-23T10:31:53;4.68;;;0.98;;
78169;SDS011;67412;49.892;14.490;2024-02-23T10:34:22;2.20;;;0.80;;
78169;SDS011;67412;49.892;14.490;2024-02-23T10:36:49;1.65;;;0.52;;
78169;SDS011;67412;49.892;14.490;2024-02-23T10:39:16;1.35;;;0.40;;
78169;SDS011;67412;49.892;14.490;2024-02-23T10:41:51;3.22;;;0.43;;
78169;SDS011;67412;49.892;14.490;2024-02-23T10:44:22;2.53;;;0.50;;
78169;SDS011;67412;49.892;14.490;2024-02-23T10:46:49;2.35;;;0.60;;
78169;SDS011;67412;49.892;14.490;2024-02-23T10:49:16;2.30;;;0.60;;
78169;SDS011;67412;49.892;14.490;2024-02-23T10:51:45;2.95;;;0.40;;
78169;SDS011;67412;49.892;14.490;2024-02-23T10:54:12;2.08;;;0.47;;
78169;SDS011;67412;49.892;14.490;2024-02-23T10:56:38;0.80;;;0.30;;
78169;SDS011;67412;49.892;14.490;2024-02-23T10:59:04;0.47;;;0.20;;
78169;SDS011;67412;49.892;14.490;2024-02-23T11:01:30;2.97;;;0.60;;
78169;SDS011;67412;49.892;14.490;2024-02-23T11:03:58;2.25;;;0.73;;
78169;SDS011;67412;49.892;14.490;2024-02-23T11:06:27;3.85;;;0.80;;
78169;SDS011;67412;49.892;14.490;2024-02-23T11:08:53;1.38;;;0.38;;
78169;SDS011;67412;49.892;14.490;2024-02-23T11:11:18;2.40;;;0.43;;
78169;SDS011;67412;49.892;14.490;2024-02-23T11:13:44;0.40;;;0.30;;
78169;SDS011;67412;49.892;14.490;2024-02-23T11:16:11;2.10;;;0.68;;
78169;SDS011;67412;49.892;14.490;2024-02-23T11:18:46;3.10;;;0.50;;
78169;SDS011;67412;49.892;14.490;2024-02-23T11:21:11;2.80;;;0.70;;
78169;SDS011;67412;49.892;14.490;2024-02-23T11:23:43;5.57;;;0.90;;
78169;SDS011;67412;49.892;14.490;2024-02-23T11:26:10;2.72;;;0.65;;
78169;SDS011;67412;49.892;14.490;2024-02-23T11:31:11;2.42;;;0.65;;
78169;SDS011;67412;49.892;14.490;2024-02-23T11:33:38;2.05;;;0.60;;
78169;SDS011;67412;49.892;14.490;2024-02-23T11:36:07;0.50;;;0.32;;
78169;SDS011;67412;49.892;14.490;2024-02-23T11:38:33;0.80;;;0.20;;
78169;SDS011;67412;49.892;14.490;2024-02-23T11:40:59;1.00;;;0.50;;
78169;SDS011;67412;49.892;14.490;2024-02-23T11:43:26;1.50;;;0.35;;
78169;SDS011;67412;49.892;14.490;2024-02-23T11:45:51;1.35;;;0.40;;
78169;SDS011;67412;49.892;14.490;2024-02-23T11:48:17;2.80;;;0.40;;
78169;SDS011;67412;49.892;14.490;2024-02-23T11:50:42;3.05;;;0.60;;
78169;SDS011;67412;49.892;14.490;2024-02-23T11:53:08;2.47;;;0.50;;
78169;SDS011;67412;49.892;14.490;2024-02-23T11:55:33;2.92;;;0.40;;
78169;SDS011;67412;49.892;14.490;2024-02-23T11:57:59;1.05;;;0.43;;
78169;SDS011;67412;49.892;14.490;2024-02-23T12:00:25;1.60;;;0.40;;
78169;SDS011;67412;49.892;14.490;2024-02-23T12:02:51;1.95;;;0.65;;
78169;SDS011;67412;49.892;14.490;2024-02-23T12:05:16;1.40;;;0.50;;
78169;SDS011;67412;49.892;14.490;2024-02-23T12:07:42;2.53;;;0.50;;
78169;SDS011;67412;49.892;14.490;2024-02-23T12:10:08;4.88;;;0.63;;
78169;SDS011;67412;49.892;14.490;2024-02-23T12:12:35;1.52;;;0.57;;
78169;SDS011;67412;49.892;14.490;2024-02-23T12:15:01;1.05;;;0.50;;
78169;SDS011;67412;49.892;14.490;2024-02-23T12:17:27;3.15;;;0.60;;
78169;SDS011;67412;49.892;14.490;2024-02-23T12:20:02;4.22;;;0.50;;
78169;SDS011;67412;49.892;14.490;2024-02-23T12:22:27;5.65;;;0.70;;
78169;SDS011;67412;49.892;14.490;2024-02-23T12:24:53;1.00;;;0.50;;
78169;SDS011;67412;49.892;14.490;2024-02-23T12:27:23;1.83;;;0.40;;
78169;SDS011;67412;49.892;14.490;2024-02-23T12:29:53;4.35;;;0.57;;
78169;SDS011;67412;49.892;14.490;2024-02-23T12:32:22;3.13;;;0.80;;
78169;SDS011;67412;49.892;14.490;2024-02-23T12:34:48;2.63;;;0.68;;
78169;SDS011;67412;49.892;14.490;2024-02-23T12:37:16;2.80;;;1.20;;
78169;SDS011;67412;49.892;14.490;2024-02-23T12:39:43;4.05;;;0.60;;
78169;SDS011;67412;49.892;14.490;2024-02-23T12:42:09;4.95;;;1.08;;
78169;SDS011;67412;49.892;14.490;2024-02-23T12:44:34;2.97;;;0.57;;
78169;SDS011;67412;49.892;14.490;2024-02-23T12:47:00;3.33;;;0.93;;
78169;SDS011;67412;49.892;14.490;2024-02-23T12:49:25;2.92;;;0.50;;
78169;SDS011;67412;49.892;14.490;2024-02-23T12:51:51;1.90;;;0.55;;
78169;SDS011;67412;49.892;14.490;2024-02-23T12:54:16;2.25;;;0.52;;
78169;SDS011;67412;49.892;14.490;2024-02-23T12:56:42;3.65;;;0.60;;
78169;SDS011;67412;49.892;14.490;2024-02-23T12:59:07;1.92;;;0.52;;
78169;SDS011;67412;49.892;14.490;2024-02-23T13:01:34;3.17;;;0.60;;
78169;SDS011;67412;49.892;14.490;2024-02-23T13:04:04;1.95;;;0.75;;
78169;SDS011;67412;49.892;14.490;2024-02-23T13:06:39;2.58;;;0.80;;
78169;SDS011;67412;49.892;14.490;2024-02-23T13:09:05;2.65;;;0.60;;
78169;SDS011;67412;49.892;14.490;2024-02-23T13:11:33;1.80;;;0.70;;
78169;SDS011;67412;49.892;14.490;2024-02-23T13:13:59;2.53;;;0.70;;
78169;SDS011;67412;49.892;14.490;2024-02-23T13:16:25;2.17;;;0.63;;
78169;SDS011;67412;49.892;14.490;2024-02-23T13:18:50;1.27;;;0.60;;
78169;SDS011;67412;49.892;14.490;2024-02-23T13:21:16;4.63;;;1.00;;
78169;SDS011;67412;49.892;14.490;2024-02-23T13:23:41;1.95;;;0.80;;
78169;SDS011;67412;49.892;14.490;2024-02-23T13:26:08;2.60;;;0.60;;
78169;SDS011;67412;49.892;14.490;2024-02-23T13:28:35;1.40;;;0.50;;
78169;SDS011;67412;49.892;14.490;2024-02-23T13:31:01;1.02;;;0.45;;
78169;SDS011;67412;49.892;14.490;2024-02-23T13:33:27;4.40;;;0.70;;
78169;SDS011;67412;49.892;14.490;2024-02-23T13:35:53;2.95;;;0.82;;
78169;SDS011;67412;49.892;14.490;2024-02-23T13:38:20;5.22;;;1.10;;
78169;SDS011;67412;49.892;14.490;2024-02-23T13:40:45;2.78;;;0.70;;
78169;SDS011;67412;49.892;14.490;2024-02-23T13:43:11;2.80;;;0.88;;
78169;SDS011;67412;49.892;14.490;2024-02-23T13:45:47;3.80;;;1.00;;
78169;SDS011;67412;49.892;14.490;2024-02-23T13:48:15;3.78;;;1.17;;
78169;SDS011;67412;49.892;14.490;2024-02-23T13:50:41;3.38;;;1.00;;
78169;SDS011;67412;49.892;14.490;2024-02-23T13:53:06;2.13;;;0.73;;
78169;SDS011;67412;49.892;14.490;2024-02-23T13:55:32;1.83;;;0.60;;
78169;SDS011;67412;49.892;14.490;2024-02-23T13:57:57;1.63;;;0.50;;
78169;SDS011;67412;49.892;14.490;2024-02-23T14:00:22;8.73;;;2.58;;
78169;SDS011;67412;49.892;14.490;2024-02-23T14:02:48;2.95;;;1.00;;
78169;SDS011;67412;49.892;14.490;2024-02-23T14:05:13;4.32;;;0.60;;
78169;SDS011;67412;49.892;14.490;2024-02-23T14:07:40;1.58;;;0.80;;
78169;SDS011;67412;49.892;14.490;2024-02-23T14:10:05;4.85;;;1.30;;
78169;SDS011;67412;49.892;14.490;2024-02-23T14:12:32;2.95;;;1.30;;
78169;SDS011;67412;49.892;14.490;2024-02-23T14:14:57;8.32;;;2.70;;
78169;SDS011;67412;49.892;14.490;2024-02-23T14:17:22;7.95;;;2.60;;
78169;SDS011;67412;49.892;14.490;2024-02-23T14:19:48;4.18;;;1.20;;
78169;SDS011;67412;49.892;14.490;2024-02-23T14:22:13;6.05;;;1.48;;
78169;SDS011;67412;49.892;14.490;2024-02-23T14:24:38;3.90;;;1.10;;
78169;SDS011;67412;49.892;14.490;2024-02-23T14:27:05;4.03;;;1.00;;
78169;SDS011;67412;49.892;14.490;2024-02-23T14:29:31;4.75;;;1.33;;
78169;SDS011;67412;49.892;14.490;2024-02-23T14:31:56;4.82;;;1.38;;
78169;SDS011;67412;49.892;14.490;2024-02-23T14:34:21;1.98;;;0.70;;
78169;SDS011;67412;49.892;14.490;2024-02-23T14:36:48;1.88;;;0.63;;